sensor_id;sensor_type;location;lat;lon;timestamp;P1;durP1;ratioP1;P2;durP2;ratioP2
72404;SDS011;60395;52.020;113.548;2023-02-28T00:04:50;23.15;;;9.05;;
72404;SDS011;60395;52.020;113.548;2023-02-28T00:08:03;28.95;;;10.23;;
72404;SDS011;60395;52.020;113.548;2023-02-28T00:11:11;31.65;;;7.43;;
72404;SDS011;60395;52.020;113.548;2023-02-28T00:14:16;28.88;;;8.98;;
72404;SDS011;60395;52.020;113.548;2023-02-28T00:17:19;24.20;;;7.75;;
72404;SDS011;60395;52.020;113.548;2023-02-28T00:20:24;28.38;;;9.05;;
72404;SDS011;60395;52.020;113.548;2023-02-28T00:23:28;33.85;;;9.65;;
72404;SDS011;60395;52.020;113.548;2023-02-28T00:26:32;19.77;;;7.32;;
72404;SDS011;60395;52.020;113.548;2023-02-28T00:29:36;18.33;;;6.18;;
72404;SDS011;60395;52.020;113.548;2023-02-28T00:32:39;14.80;;;5.78;;
72404;SDS011;60395;52.020;113.548;2023-02-28T00:35:43;25.30;;;7.18;;
72404;SDS011;60395;52.020;113.548;2023-02-28T00:38:48;26.10;;;5.80;;
72404;SDS011;60395;52.020;113.548;2023-02-28T00:41:52;16.35;;;5.50;;
72404;SDS011;60395;52.020;113.548;2023-02-28T00:44:55;13.82;;;5.18;;
72404;SDS011;60395;52.020;113.548;2023-02-28T00:47:58;15.40;;;5.60;;
72404;SDS011;60395;52.020;113.548;2023-02-28T00:51:02;18.83;;;5.78;;
72404;SDS011;60395;52.020;113.548;2023-02-28T00:54:05;23.53;;;5.63;;
72404;SDS011;60395;52.020;113.548;2023-02-28T00:57:08;19.63;;;5.90;;
72404;SDS011;60395;52.020;113.548;2023-02-28T01:00:12;24.25;;;6.85;;
72404;SDS011;60395;52.020;113.548;2023-02-28T01:06:20;21.58;;;6.68;;
72404;SDS011;60395;52.020;113.548;2023-02-28T01:09:23;31.83;;;8.18;;
72404;SDS011;60395;52.020;113.548;2023-02-28T01:12:27;16.65;;;6.40;;
72404;SDS011;60395;52.020;113.548;2023-02-28T01:18:35;6.35;;;2.83;;
72404;SDS011;60395;52.020;113.548;2023-02-28T01:21:39;7.78;;;3.60;;
72404;SDS011;60395;52.020;113.548;2023-02-28T01:24:45;12.73;;;3.85;;
72404;SDS011;60395;52.020;113.548;2023-02-28T01:27:49;18.73;;;4.77;;
72404;SDS011;60395;52.020;113.548;2023-02-28T01:30:53;8.32;;;3.28;;
72404;SDS011;60395;52.020;113.548;2023-02-28T01:33:56;10.50;;;3.38;;
72404;SDS011;60395;52.020;113.548;2023-02-28T01:37:02;9.32;;;3.65;;
72404;SDS011;60395;52.020;113.548;2023-02-28T01:40:06;7.43;;;3.50;;
72404;SDS011;60395;52.020;113.548;2023-02-28T01:43:19;11.43;;;4.50;;
72404;SDS011;60395;52.020;113.548;2023-02-28T01:46:30;11.82;;;4.25;;
72404;SDS011;60395;52.020;113.548;2023-02-28T01:49:35;12.75;;;4.80;;
72404;SDS011;60395;52.020;113.548;2023-02-28T01:52:39;8.40;;;3.90;;
72404;SDS011;60395;52.020;113.548;2023-02-28T01:55:45;13.32;;;4.75;;
72404;SDS011;60395;52.020;113.548;2023-02-28T01:58:52;13.50;;;4.60;;
72404;SDS011;60395;52.020;113.548;2023-02-28T02:01:57;9.90;;;3.28;;
72404;SDS011;60395;52.020;113.548;2023-02-28T02:05:05;10.70;;;4.47;;
72404;SDS011;60395;52.020;113.548;2023-02-28T02:08:11;14.68;;;3.88;;
72404;SDS011;60395;52.020;113.548;2023-02-28T02:11:18;11.48;;;4.30;;
72404;SDS011;60395;52.020;113.548;2023-02-28T02:18:09;9.30;;;4.00;;
72404;SDS011;60395;52.020;113.548;2023-02-28T02:42:16;9.55;;;3.83;;
72404;SDS011;60395;52.020;113.548;2023-02-28T02:45:49;10.00;;;3.95;;
72404;SDS011;60395;52.020;113.548;2023-02-28T02:48:57;9.00;;;4.15;;
72404;SDS011;60395;52.020;113.548;2023-02-28T02:52:06;13.80;;;3.90;;
72404;SDS011;60395;52.020;113.548;2023-02-28T02:55:14;12.55;;;4.40;;
72404;SDS011;60395;52.020;113.548;2023-02-28T02:58:18;12.18;;;4.40;;
72404;SDS011;60395;52.020;113.548;2023-02-28T03:01:27;11.43;;;3.53;;
72404;SDS011;60395;52.020;113.548;2023-02-28T03:04:35;10.25;;;4.22;;
72404;SDS011;60395;52.020;113.548;2023-02-28T03:07:44;9.73;;;3.45;;
72404;SDS011;60395;52.020;113.548;2023-02-28T03:10:48;8.32;;;3.63;;
72404;SDS011;60395;52.020;113.548;2023-02-28T03:23:56;6.38;;;2.80;;
72404;SDS011;60395;52.020;113.548;2023-02-28T03:27:09;7.15;;;3.08;;
72404;SDS011;60395;52.020;113.548;2023-02-28T03:37:31;10.18;;;4.70;;
72404;SDS011;60395;52.020;113.548;2023-02-28T03:40:39;12.65;;;5.25;;
72404;SDS011;60395;52.020;113.548;2023-02-28T03:43:56;9.73;;;3.47;;
72404;SDS011;60395;52.020;113.548;2023-02-28T03:47:04;8.50;;;3.20;;
72404;SDS011;60395;52.020;113.548;2023-02-28T03:50:17;4.90;;;2.65;;
72404;SDS011;60395;52.020;113.548;2023-02-28T03:56:43;10.85;;;3.90;;
72404;SDS011;60395;52.020;113.548;2023-02-28T03:59:58;8.40;;;2.87;;
72404;SDS011;60395;52.020;113.548;2023-02-28T04:03:13;6.90;;;3.05;;
72404;SDS011;60395;52.020;113.548;2023-02-28T04:06:17;6.63;;;2.67;;
72404;SDS011;60395;52.020;113.548;2023-02-28T04:09:23;4.28;;;1.83;;
72404;SDS011;60395;52.020;113.548;2023-02-28T04:12:26;12.07;;;3.67;;
72404;SDS011;60395;52.020;113.548;2023-02-28T04:15:30;4.78;;;2.25;;
72404;SDS011;60395;52.020;113.548;2023-02-28T04:18:34;4.20;;;2.15;;
72404;SDS011;60395;52.020;113.548;2023-02-28T04:21:42;6.35;;;2.55;;
72404;SDS011;60395;52.020;113.548;2023-02-28T04:24:47;7.47;;;3.00;;
72404;SDS011;60395;52.020;113.548;2023-02-28T04:27:51;12.48;;;3.70;;
72404;SDS011;60395;52.020;113.548;2023-02-28T04:30:55;10.23;;;3.20;;
72404;SDS011;60395;52.020;113.548;2023-02-28T04:34:00;8.02;;;3.20;;
72404;SDS011;60395;52.020;113.548;2023-02-28T04:37:04;4.35;;;2.40;;
72404;SDS011;60395;52.020;113.548;2023-02-28T04:40:14;4.63;;;2.20;;
72404;SDS011;60395;52.020;113.548;2023-02-28T04:43:17;8.05;;;3.33;;
72404;SDS011;60395;52.020;113.548;2023-02-28T04:46:20;5.45;;;2.88;;
72404;SDS011;60395;52.020;113.548;2023-02-28T04:49:24;6.13;;;2.75;;
72404;SDS011;60395;52.020;113.548;2023-02-28T04:52:28;6.03;;;1.90;;
72404;SDS011;60395;52.020;113.548;2023-02-28T04:55:31;3.80;;;2.13;;
72404;SDS011;60395;52.020;113.548;2023-02-28T04:58:34;5.10;;;2.20;;
72404;SDS011;60395;52.020;113.548;2023-02-28T05:01:37;5.60;;;2.08;;
72404;SDS011;60395;52.020;113.548;2023-02-28T05:04:41;5.07;;;2.58;;
72404;SDS011;60395;52.020;113.548;2023-02-28T05:07:44;14.48;;;3.00;;
72404;SDS011;60395;52.020;113.548;2023-02-28T05:10:47;4.88;;;2.42;;
72404;SDS011;60395;52.020;113.548;2023-02-28T05:13:51;6.57;;;2.90;;
72404;SDS011;60395;52.020;113.548;2023-02-28T05:16:56;6.65;;;2.58;;
72404;SDS011;60395;52.020;113.548;2023-02-28T05:19:59;5.15;;;2.58;;
72404;SDS011;60395;52.020;113.548;2023-02-28T05:23:15;8.75;;;3.13;;
72404;SDS011;60395;52.020;113.548;2023-02-28T05:26:20;38.28;;;13.38;;
72404;SDS011;60395;52.020;113.548;2023-02-28T05:29:23;2.30;;;1.50;;
72404;SDS011;60395;52.020;113.548;2023-02-28T05:32:27;12.10;;;3.90;;
72404;SDS011;60395;52.020;113.548;2023-02-28T05:35:30;9.07;;;3.65;;
72404;SDS011;60395;52.020;113.548;2023-02-28T05:38:34;4.68;;;2.50;;
72404;SDS011;60395;52.020;113.548;2023-02-28T05:41:40;7.05;;;2.83;;
72404;SDS011;60395;52.020;113.548;2023-02-28T05:44:44;7.07;;;2.50;;
72404;SDS011;60395;52.020;113.548;2023-02-28T05:47:48;5.07;;;2.08;;
72404;SDS011;60395;52.020;113.548;2023-02-28T05:50:51;2.67;;;1.45;;
72404;SDS011;60395;52.020;113.548;2023-02-28T05:53:54;4.35;;;2.30;;
72404;SDS011;60395;52.020;113.548;2023-02-28T05:57:01;2.72;;;1.67;;
72404;SDS011;60395;52.020;113.548;2023-02-28T06:00:13;5.53;;;2.35;;
72404;SDS011;60395;52.020;113.548;2023-02-28T06:03:18;7.65;;;2.72;;
72404;SDS011;60395;52.020;113.548;2023-02-28T06:06:21;15.13;;;4.47;;
72404;SDS011;60395;52.020;113.548;2023-02-28T06:09:24;21.00;;;6.70;;
72404;SDS011;60395;52.020;113.548;2023-02-28T06:12:28;7.45;;;3.47;;
72404;SDS011;60395;52.020;113.548;2023-02-28T06:15:31;4.32;;;2.10;;
72404;SDS011;60395;52.020;113.548;2023-02-28T06:18:35;5.75;;;2.78;;
72404;SDS011;60395;52.020;113.548;2023-02-28T06:21:38;4.70;;;2.15;;
72404;SDS011;60395;52.020;113.548;2023-02-28T06:24:42;4.68;;;1.88;;
72404;SDS011;60395;52.020;113.548;2023-02-28T06:27:45;5.88;;;2.03;;
72404;SDS011;60395;52.020;113.548;2023-02-28T06:30:48;4.25;;;1.75;;
72404;SDS011;60395;52.020;113.548;2023-02-28T06:33:55;9.23;;;3.70;;
72404;SDS011;60395;52.020;113.548;2023-02-28T06:36:59;5.10;;;2.88;;
72404;SDS011;60395;52.020;113.548;2023-02-28T06:40:05;7.15;;;3.35;;
72404;SDS011;60395;52.020;113.548;2023-02-28T06:43:09;6.18;;;2.67;;
72404;SDS011;60395;52.020;113.548;2023-02-28T06:46:15;3.60;;;1.75;;
72404;SDS011;60395;52.020;113.548;2023-02-28T06:49:19;5.43;;;1.15;;
72404;SDS011;60395;52.020;113.548;2023-02-28T06:52:22;10.95;;;2.20;;
72404;SDS011;60395;52.020;113.548;2023-02-28T06:55:26;6.13;;;3.00;;
72404;SDS011;60395;52.020;113.548;2023-02-28T06:58:31;5.88;;;1.85;;
72404;SDS011;60395;52.020;113.548;2023-02-28T07:01:35;5.47;;;2.50;;
72404;SDS011;60395;52.020;113.548;2023-02-28T07:04:38;13.50;;;3.88;;
72404;SDS011;60395;52.020;113.548;2023-02-28T07:07:42;4.45;;;1.95;;
72404;SDS011;60395;52.020;113.548;2023-02-28T07:10:52;7.40;;;2.28;;
72404;SDS011;60395;52.020;113.548;2023-02-28T07:13:56;6.70;;;3.22;;
72404;SDS011;60395;52.020;113.548;2023-02-28T07:17:00;6.90;;;3.15;;
72404;SDS011;60395;52.020;113.548;2023-02-28T07:20:04;4.70;;;2.22;;
72404;SDS011;60395;52.020;113.548;2023-02-28T07:23:08;7.85;;;2.75;;
72404;SDS011;60395;52.020;113.548;2023-02-28T07:26:13;11.95;;;3.38;;
72404;SDS011;60395;52.020;113.548;2023-02-28T07:29:19;15.90;;;4.35;;
72404;SDS011;60395;52.020;113.548;2023-02-28T07:32:23;13.10;;;2.70;;
72404;SDS011;60395;52.020;113.548;2023-02-28T07:35:26;6.15;;;2.75;;
72404;SDS011;60395;52.020;113.548;2023-02-28T07:38:30;5.47;;;1.73;;
72404;SDS011;60395;52.020;113.548;2023-02-28T07:41:39;4.85;;;2.55;;
72404;SDS011;60395;52.020;113.548;2023-02-28T07:44:46;6.35;;;2.88;;
72404;SDS011;60395;52.020;113.548;2023-02-28T07:47:49;4.40;;;1.92;;
72404;SDS011;60395;52.020;113.548;2023-02-28T07:50:56;11.32;;;3.40;;
72404;SDS011;60395;52.020;113.548;2023-02-28T07:54:01;6.15;;;1.65;;
72404;SDS011;60395;52.020;113.548;2023-02-28T07:57:05;13.50;;;3.93;;
72404;SDS011;60395;52.020;113.548;2023-02-28T08:00:09;10.85;;;3.17;;
72404;SDS011;60395;52.020;113.548;2023-02-28T08:03:15;12.80;;;3.13;;
72404;SDS011;60395;52.020;113.548;2023-02-28T08:06:20;12.32;;;3.33;;
72404;SDS011;60395;52.020;113.548;2023-02-28T08:09:25;9.10;;;2.53;;
72404;SDS011;60395;52.020;113.548;2023-02-28T08:12:29;3.08;;;1.92;;
72404;SDS011;60395;52.020;113.548;2023-02-28T08:15:33;4.53;;;1.85;;
72404;SDS011;60395;52.020;113.548;2023-02-28T08:18:36;5.50;;;2.10;;
72404;SDS011;60395;52.020;113.548;2023-02-28T08:21:43;10.80;;;3.33;;
72404;SDS011;60395;52.020;113.548;2023-02-28T08:24:46;19.23;;;4.10;;
72404;SDS011;60395;52.020;113.548;2023-02-28T08:27:50;22.63;;;8.02;;
72404;SDS011;60395;52.020;113.548;2023-02-28T08:30:54;15.18;;;4.97;;
72404;SDS011;60395;52.020;113.548;2023-02-28T08:33:58;12.07;;;4.97;;
72404;SDS011;60395;52.020;113.548;2023-02-28T08:37:07;6.88;;;3.30;;
72404;SDS011;60395;52.020;113.548;2023-02-28T08:40:10;3.83;;;2.20;;
72404;SDS011;60395;52.020;113.548;2023-02-28T08:43:20;13.75;;;3.90;;
72404;SDS011;60395;52.020;113.548;2023-02-28T08:46:24;7.85;;;1.98;;
72404;SDS011;60395;52.020;113.548;2023-02-28T08:49:27;6.03;;;2.78;;
72404;SDS011;60395;52.020;113.548;2023-02-28T08:52:31;9.57;;;2.67;;
72404;SDS011;60395;52.020;113.548;2023-02-28T08:55:34;6.60;;;1.67;;
72404;SDS011;60395;52.020;113.548;2023-02-28T08:58:39;8.98;;;3.88;;
72404;SDS011;60395;52.020;113.548;2023-02-28T09:01:42;13.83;;;4.57;;
72404;SDS011;60395;52.020;113.548;2023-02-28T09:04:46;7.70;;;3.42;;
72404;SDS011;60395;52.020;113.548;2023-02-28T09:07:49;4.32;;;2.15;;
72404;SDS011;60395;52.020;113.548;2023-02-28T09:10:53;13.43;;;4.70;;
72404;SDS011;60395;52.020;113.548;2023-02-28T09:13:58;8.70;;;3.92;;
72404;SDS011;60395;52.020;113.548;2023-02-28T09:20:06;24.92;;;8.57;;
72404;SDS011;60395;52.020;113.548;2023-02-28T09:23:11;24.52;;;6.65;;
72404;SDS011;60395;52.020;113.548;2023-02-28T09:26:19;25.48;;;9.07;;
72404;SDS011;60395;52.020;113.548;2023-02-28T09:29:24;34.28;;;13.18;;
72404;SDS011;60395;52.020;113.548;2023-02-28T09:32:28;30.35;;;9.18;;
72404;SDS011;60395;52.020;113.548;2023-02-28T09:35:31;16.67;;;5.90;;
72404;SDS011;60395;52.020;113.548;2023-02-28T09:38:34;14.60;;;3.50;;
72404;SDS011;60395;52.020;113.548;2023-02-28T09:41:42;10.35;;;4.47;;
72404;SDS011;60395;52.020;113.548;2023-02-28T09:44:53;16.02;;;5.68;;
72404;SDS011;60395;52.020;113.548;2023-02-28T09:47:58;4.05;;;1.70;;
72404;SDS011;60395;52.020;113.548;2023-02-28T09:51:13;6.63;;;2.60;;
72404;SDS011;60395;52.020;113.548;2023-02-28T09:54:31;6.93;;;3.60;;
72404;SDS011;60395;52.020;113.548;2023-02-28T09:57:36;6.28;;;2.95;;
72404;SDS011;60395;52.020;113.548;2023-02-28T10:00:42;3.15;;;1.27;;
72404;SDS011;60395;52.020;113.548;2023-02-28T10:03:55;3.57;;;1.60;;
72404;SDS011;60395;52.020;113.548;2023-02-28T10:10:58;7.47;;;2.72;;
72404;SDS011;60395;52.020;113.548;2023-02-28T10:17:15;4.40;;;2.13;;
72404;SDS011;60395;52.020;113.548;2023-02-28T10:20:22;6.55;;;3.65;;
72404;SDS011;60395;52.020;113.548;2023-02-28T10:23:34;11.25;;;4.78;;
72404;SDS011;60395;52.020;113.548;2023-02-28T10:26:39;7.60;;;3.95;;
72404;SDS011;60395;52.020;113.548;2023-02-28T10:29:52;5.18;;;2.53;;
72404;SDS011;60395;52.020;113.548;2023-02-28T10:32:58;9.27;;;3.03;;
72404;SDS011;60395;52.020;113.548;2023-02-28T10:36:02;7.05;;;2.03;;
72404;SDS011;60395;52.020;113.548;2023-02-28T10:43:00;9.27;;;3.33;;
72404;SDS011;60395;52.020;113.548;2023-02-28T10:46:11;8.30;;;3.80;;
72404;SDS011;60395;52.020;113.548;2023-02-28T10:49:26;13.88;;;4.55;;
72404;SDS011;60395;52.020;113.548;2023-02-28T10:52:37;4.32;;;2.55;;
72404;SDS011;60395;52.020;113.548;2023-02-28T10:55:43;9.88;;;3.47;;
72404;SDS011;60395;52.020;113.548;2023-02-28T10:58:48;10.13;;;4.17;;
72404;SDS011;60395;52.020;113.548;2023-02-28T11:02:01;6.35;;;2.65;;
72404;SDS011;60395;52.020;113.548;2023-02-28T11:08:32;11.85;;;5.93;;
72404;SDS011;60395;52.020;113.548;2023-02-28T11:11:45;6.97;;;4.03;;
72404;SDS011;60395;52.020;113.548;2023-02-28T11:14:54;14.57;;;5.35;;
72404;SDS011;60395;52.020;113.548;2023-02-28T11:18:01;11.43;;;5.70;;
72404;SDS011;60395;52.020;113.548;2023-02-28T11:24:36;11.52;;;5.28;;
72404;SDS011;60395;52.020;113.548;2023-02-28T11:31:35;17.10;;;7.18;;
72404;SDS011;60395;52.020;113.548;2023-02-28T11:34:25;14.75;;;5.82;;
72404;SDS011;60395;52.020;113.548;2023-02-28T11:37:30;18.50;;;6.63;;
72404;SDS011;60395;52.020;113.548;2023-02-28T11:47:17;27.85;;;11.25;;
72404;SDS011;60395;52.020;113.548;2023-02-28T12:00:44;19.48;;;7.78;;
72404;SDS011;60395;52.020;113.548;2023-02-28T12:07:45;14.93;;;6.40;;
72404;SDS011;60395;52.020;113.548;2023-02-28T12:18:11;16.38;;;6.55;;
72404;SDS011;60395;52.020;113.548;2023-02-28T12:24:54;14.27;;;5.05;;
72404;SDS011;60395;52.020;113.548;2023-02-28T12:28:39;16.98;;;6.38;;
72404;SDS011;60395;52.020;113.548;2023-02-28T12:31:56;15.43;;;5.00;;
72404;SDS011;60395;52.020;113.548;2023-02-28T12:35:26;15.65;;;5.57;;
72404;SDS011;60395;52.020;113.548;2023-02-28T12:38:38;12.90;;;5.38;;
72404;SDS011;60395;52.020;113.548;2023-02-28T12:41:59;35.47;;;9.40;;
72404;SDS011;60395;52.020;113.548;2023-02-28T12:45:12;27.75;;;9.27;;
72404;SDS011;60395;52.020;113.548;2023-02-28T12:48:28;34.92;;;13.07;;
72404;SDS011;60395;52.020;113.548;2023-02-28T12:51:40;20.92;;;8.38;;
72404;SDS011;60395;52.020;113.548;2023-02-28T12:54:52;16.33;;;6.85;;
72404;SDS011;60395;52.020;113.548;2023-02-28T13:04:19;14.35;;;6.38;;
72404;SDS011;60395;52.020;113.548;2023-02-28T13:10:50;25.48;;;8.80;;
72404;SDS011;60395;52.020;113.548;2023-02-28T13:14:06;31.95;;;10.75;;
72404;SDS011;60395;52.020;113.548;2023-02-28T13:17:24;27.25;;;9.40;;
72404;SDS011;60395;52.020;113.548;2023-02-28T13:20:35;70.97;;;23.20;;
72404;SDS011;60395;52.020;113.548;2023-02-28T13:24:00;84.35;;;29.40;;
72404;SDS011;60395;52.020;113.548;2023-02-28T13:40:32;80.57;;;29.23;;
72404;SDS011;60395;52.020;113.548;2023-02-28T13:47:21;70.70;;;25.35;;
72404;SDS011;60395;52.020;113.548;2023-02-28T13:53:40;81.22;;;25.40;;
72404;SDS011;60395;52.020;113.548;2023-02-28T13:57:07;92.45;;;26.40;;
72404;SDS011;60395;52.020;113.548;2023-02-28T14:07:28;46.35;;;17.05;;
72404;SDS011;60395;52.020;113.548;2023-02-28T14:44:26;22.95;;;8.25;;
72404;SDS011;60395;52.020;113.548;2023-02-28T14:57:57;9.48;;;5.85;;
72404;SDS011;60395;52.020;113.548;2023-02-28T15:01:45;18.30;;;6.18;;
72404;SDS011;60395;52.020;113.548;2023-02-28T15:05:28;11.73;;;4.97;;
72404;SDS011;60395;52.020;113.548;2023-02-28T15:09:47;16.38;;;5.93;;
72404;SDS011;60395;52.020;113.548;2023-02-28T15:17:44;19.77;;;7.38;;
72404;SDS011;60395;52.020;113.548;2023-02-28T15:21:15;22.33;;;7.40;;
72404;SDS011;60395;52.020;113.548;2023-02-28T15:24:52;37.75;;;9.48;;
72404;SDS011;60395;52.020;113.548;2023-02-28T15:28:13;26.38;;;8.70;;
72404;SDS011;60395;52.020;113.548;2023-02-28T15:31:44;29.70;;;10.15;;
72404;SDS011;60395;52.020;113.548;2023-02-28T15:39:01;34.05;;;11.77;;
72404;SDS011;60395;52.020;113.548;2023-02-28T15:42:29;27.95;;;9.63;;
72404;SDS011;60395;52.020;113.548;2023-02-28T15:45:53;20.80;;;8.40;;
72404;SDS011;60395;52.020;113.548;2023-02-28T15:49:21;14.85;;;6.07;;
72404;SDS011;60395;52.020;113.548;2023-02-28T15:52:52;22.23;;;8.38;;
72404;SDS011;60395;52.020;113.548;2023-02-28T15:56:30;24.35;;;10.02;;
72404;SDS011;60395;52.020;113.548;2023-02-28T15:59:57;26.20;;;9.32;;
72404;SDS011;60395;52.020;113.548;2023-02-28T16:03:48;23.33;;;8.52;;
72404;SDS011;60395;52.020;113.548;2023-02-28T16:07:12;18.23;;;8.23;;
72404;SDS011;60395;52.020;113.548;2023-02-28T16:10:45;21.42;;;8.98;;
72404;SDS011;60395;52.020;113.548;2023-02-28T16:14:17;20.77;;;7.85;;
72404;SDS011;60395;52.020;113.548;2023-02-28T16:21:54;20.67;;;7.47;;
72404;SDS011;60395;52.020;113.548;2023-02-28T16:25:14;17.90;;;7.65;;
72404;SDS011;60395;52.020;113.548;2023-02-28T16:28:35;19.17;;;7.85;;
72404;SDS011;60395;52.020;113.548;2023-02-28T16:31:52;15.65;;;7.03;;
72404;SDS011;60395;52.020;113.548;2023-02-28T16:34:59;16.45;;;7.22;;
72404;SDS011;60395;52.020;113.548;2023-02-28T16:38:21;24.77;;;9.55;;
72404;SDS011;60395;52.020;113.548;2023-02-28T16:41:46;22.85;;;8.05;;
72404;SDS011;60395;52.020;113.548;2023-02-28T16:45:13;15.75;;;5.45;;
72404;SDS011;60395;52.020;113.548;2023-02-28T16:48:45;18.52;;;5.40;;
72404;SDS011;60395;52.020;113.548;2023-02-28T16:52:20;22.67;;;7.07;;
72404;SDS011;60395;52.020;113.548;2023-02-28T16:55:36;9.68;;;4.38;;
72404;SDS011;60395;52.020;113.548;2023-02-28T16:59:19;10.45;;;5.22;;
72404;SDS011;60395;52.020;113.548;2023-02-28T17:02:53;20.15;;;5.82;;
72404;SDS011;60395;52.020;113.548;2023-02-28T17:07:06;17.38;;;5.65;;
72404;SDS011;60395;52.020;113.548;2023-02-28T17:11:15;16.08;;;5.45;;
72404;SDS011;60395;52.020;113.548;2023-02-28T17:14:37;10.18;;;4.38;;
72404;SDS011;60395;52.020;113.548;2023-02-28T17:17:52;12.57;;;5.22;;
72404;SDS011;60395;52.020;113.548;2023-02-28T17:21:49;8.55;;;4.00;;
72404;SDS011;60395;52.020;113.548;2023-02-28T17:38:26;7.95;;;3.55;;
72404;SDS011;60395;52.020;113.548;2023-02-28T17:41:44;18.48;;;5.57;;
72404;SDS011;60395;52.020;113.548;2023-02-28T17:48:33;6.68;;;3.42;;
72404;SDS011;60395;52.020;113.548;2023-02-28T17:52:01;11.05;;;4.57;;
72404;SDS011;60395;52.020;113.548;2023-02-28T17:59:53;7.78;;;3.00;;
72404;SDS011;60395;52.020;113.548;2023-02-28T18:03:59;8.05;;;4.00;;
72404;SDS011;60395;52.020;113.548;2023-02-28T18:12:21;11.73;;;3.20;;
72404;SDS011;60395;52.020;113.548;2023-02-28T18:16:14;12.55;;;4.57;;
72404;SDS011;60395;52.020;113.548;2023-02-28T18:19:52;10.10;;;3.80;;
72404;SDS011;60395;52.020;113.548;2023-02-28T18:23:13;8.82;;;4.72;;
72404;SDS011;60395;52.020;113.548;2023-02-28T18:26:52;7.57;;;3.75;;
72404;SDS011;60395;52.020;113.548;2023-02-28T18:30:31;11.57;;;3.75;;
72404;SDS011;60395;52.020;113.548;2023-02-28T18:33:48;9.30;;;3.53;;
72404;SDS011;60395;52.020;113.548;2023-02-28T18:37:11;10.45;;;3.97;;
72404;SDS011;60395;52.020;113.548;2023-02-28T18:40:40;7.68;;;3.35;;
72404;SDS011;60395;52.020;113.548;2023-02-28T18:44:41;3.88;;;1.90;;
72404;SDS011;60395;52.020;113.548;2023-02-28T18:48:22;7.38;;;3.05;;
72404;SDS011;60395;52.020;113.548;2023-02-28T18:52:39;5.65;;;2.78;;
72404;SDS011;60395;52.020;113.548;2023-02-28T18:56:37;2.92;;;2.17;;
72404;SDS011;60395;52.020;113.548;2023-02-28T19:00:24;10.35;;;3.85;;
72404;SDS011;60395;52.020;113.548;2023-02-28T19:03:49;4.93;;;2.03;;
72404;SDS011;60395;52.020;113.548;2023-02-28T19:07:34;12.80;;;4.47;;
72404;SDS011;60395;52.020;113.548;2023-02-28T19:11:07;11.38;;;4.18;;
72404;SDS011;60395;52.020;113.548;2023-02-28T19:14:28;11.30;;;4.57;;
72404;SDS011;60395;52.020;113.548;2023-02-28T19:18:34;14.60;;;4.40;;
72404;SDS011;60395;52.020;113.548;2023-02-28T19:22:08;8.82;;;3.78;;
72404;SDS011;60395;52.020;113.548;2023-02-28T19:25:23;12.75;;;3.92;;
72404;SDS011;60395;52.020;113.548;2023-02-28T19:29:12;10.10;;;4.68;;
72404;SDS011;60395;52.020;113.548;2023-02-28T19:32:29;12.48;;;4.65;;
72404;SDS011;60395;52.020;113.548;2023-02-28T19:35:50;17.80;;;5.38;;
72404;SDS011;60395;52.020;113.548;2023-02-28T19:39:16;13.43;;;4.85;;
72404;SDS011;60395;52.020;113.548;2023-02-28T19:43:06;9.82;;;4.00;;
72404;SDS011;60395;52.020;113.548;2023-02-28T19:47:30;10.07;;;2.90;;
72404;SDS011;60395;52.020;113.548;2023-02-28T19:51:18;4.72;;;2.28;;
72404;SDS011;60395;52.020;113.548;2023-02-28T19:54:45;6.68;;;3.00;;
72404;SDS011;60395;52.020;113.548;2023-02-28T19:58:24;8.95;;;2.72;;
72404;SDS011;60395;52.020;113.548;2023-02-28T20:02:35;7.15;;;3.05;;
72404;SDS011;60395;52.020;113.548;2023-02-28T20:06:14;13.68;;;3.45;;
72404;SDS011;60395;52.020;113.548;2023-02-28T20:10:13;5.95;;;2.50;;
72404;SDS011;60395;52.020;113.548;2023-02-28T20:14:22;6.32;;;2.80;;
72404;SDS011;60395;52.020;113.548;2023-02-28T20:21:44;2.45;;;1.40;;
72404;SDS011;60395;52.020;113.548;2023-02-28T20:24:54;14.43;;;3.13;;
72404;SDS011;60395;52.020;113.548;2023-02-28T20:28:19;6.03;;;2.90;;
72404;SDS011;60395;52.020;113.548;2023-02-28T20:31:49;2.15;;;0.98;;
72404;SDS011;60395;52.020;113.548;2023-02-28T20:34:58;14.38;;;2.80;;
72404;SDS011;60395;52.020;113.548;2023-02-28T20:38:13;12.98;;;3.55;;
72404;SDS011;60395;52.020;113.548;2023-02-28T20:41:27;5.13;;;2.97;;
72404;SDS011;60395;52.020;113.548;2023-02-28T20:44:50;8.23;;;2.65;;
72404;SDS011;60395;52.020;113.548;2023-02-28T20:48:20;2.17;;;1.02;;
72404;SDS011;60395;52.020;113.548;2023-02-28T20:51:32;7.60;;;1.98;;
72404;SDS011;60395;52.020;113.548;2023-02-28T20:55:05;6.50;;;2.08;;
72404;SDS011;60395;52.020;113.548;2023-02-28T20:58:32;3.20;;;1.77;;
72404;SDS011;60395;52.020;113.548;2023-02-28T21:02:29;9.65;;;2.22;;
72404;SDS011;60395;52.020;113.548;2023-02-28T21:05:47;3.50;;;1.90;;
72404;SDS011;60395;52.020;113.548;2023-02-28T21:09:11;8.57;;;2.22;;
72404;SDS011;60395;52.020;113.548;2023-02-28T21:12:24;6.93;;;2.58;;
72404;SDS011;60395;52.020;113.548;2023-02-28T21:15:46;3.05;;;2.22;;
72404;SDS011;60395;52.020;113.548;2023-02-28T21:19:38;6.10;;;2.67;;
72404;SDS011;60395;52.020;113.548;2023-02-28T21:22:56;4.43;;;2.28;;
72404;SDS011;60395;52.020;113.548;2023-02-28T21:26:19;7.18;;;1.98;;
72404;SDS011;60395;52.020;113.548;2023-02-28T21:29:41;4.57;;;2.15;;
72404;SDS011;60395;52.020;113.548;2023-02-28T21:41:35;0.60;;;0.60;;
72404;SDS011;60395;52.020;113.548;2023-02-28T22:04:44;3.75;;;1.95;;
72404;SDS011;60395;52.020;113.548;2023-02-28T22:08:26;2.35;;;1.23;;
72404;SDS011;60395;52.020;113.548;2023-02-28T22:11:59;6.38;;;2.92;;
72404;SDS011;60395;52.020;113.548;2023-02-28T22:16:01;13.10;;;2.55;;
72404;SDS011;60395;52.020;113.548;2023-02-28T22:19:32;3.15;;;1.70;;
72404;SDS011;60395;52.020;113.548;2023-02-28T22:26:42;4.97;;;2.60;;
72404;SDS011;60395;52.020;113.548;2023-02-28T22:36:14;23.08;;;5.75;;
72404;SDS011;60395;52.020;113.548;2023-02-28T22:44:44;9.55;;;4.30;;
72404;SDS011;60395;52.020;113.548;2023-02-28T23:12:09;3.35;;;1.65;;
72404;SDS011;60395;52.020;113.548;2023-02-28T23:19:57;2.42;;;1.65;;
72404;SDS011;60395;52.020;113.548;2023-02-28T23:23:04;3.22;;;1.95;;
72404;SDS011;60395;52.020;113.548;2023-02-28T23:26:14;9.40;;;3.10;;
72404;SDS011;60395;52.020;113.548;2023-02-28T23:29:19;8.30;;;2.35;;
72404;SDS011;60395;52.020;113.548;2023-02-28T23:32:24;7.78;;;3.40;;
72404;SDS011;60395;52.020;113.548;2023-02-28T23:35:28;7.30;;;2.88;;
72404;SDS011;60395;52.020;113.548;2023-02-28T23:38:31;11.40;;;3.45;;
72404;SDS011;60395;52.020;113.548;2023-02-28T23:41:35;7.40;;;2.30;;
72404;SDS011;60395;52.020;113.548;2023-02-28T23:44:39;9.95;;;4.47;;
72404;SDS011;60395;52.020;113.548;2023-02-28T23:47:44;5.32;;;3.13;;
72404;SDS011;60395;52.020;113.548;2023-02-28T23:50:48;10.52;;;4.65;;
72404;SDS011;60395;52.020;113.548;2023-02-28T23:53:55;7.90;;;2.92;;
72404;SDS011;60395;52.020;113.548;2023-02-28T23:57:04;5.80;;;2.90;;
